sensor_id;sensor_type;location;lat;lon;timestamp;P1;durP1;ratioP1;P2;durP2;ratioP2
53309;SDS011;39197;53.200;5.792;2023-06-10T00:02:03;11.30;;;5.28;;
53309;SDS011;39197;53.200;5.792;2023-06-10T00:04:29;9.52;;;4.93;;
53309;SDS011;39197;53.200;5.792;2023-06-10T00:06:54;10.02;;;5.50;;
53309;SDS011;39197;53.200;5.792;2023-06-10T00:09:20;8.55;;;5.60;;
53309;SDS011;39197;53.200;5.792;2023-06-10T00:11:47;9.90;;;5.28;;
53309;SDS011;39197;53.200;5.792;2023-06-10T00:14:13;14.23;;;7.45;;
53309;SDS011;39197;53.200;5.792;2023-06-10T00:16:38;8.93;;;5.32;;
53309;SDS011;39197;53.200;5.792;2023-06-10T00:19:04;10.63;;;6.43;;
53309;SDS011;39197;53.200;5.792;2023-06-10T00:21:31;11.55;;;7.10;;
53309;SDS011;39197;53.200;5.792;2023-06-10T00:24:03;8.07;;;5.27;;
53309;SDS011;39197;53.200;5.792;2023-06-10T00:26:32;11.38;;;5.20;;
53309;SDS011;39197;53.200;5.792;2023-06-10T00:28:58;9.80;;;5.55;;
53309;SDS011;39197;53.200;5.792;2023-06-10T00:31:24;9.02;;;6.68;;
53309;SDS011;39197;53.200;5.792;2023-06-10T00:33:53;11.15;;;6.75;;
53309;SDS011;39197;53.200;5.792;2023-06-10T00:36:19;9.05;;;5.25;;
53309;SDS011;39197;53.200;5.792;2023-06-10T00:38:46;10.23;;;5.50;;
53309;SDS011;39197;53.200;5.792;2023-06-10T00:41:11;10.95;;;5.65;;
53309;SDS011;39197;53.200;5.792;2023-06-10T00:43:37;8.48;;;4.97;;
53309;SDS011;39197;53.200;5.792;2023-06-10T00:46:02;9.38;;;5.20;;
53309;SDS011;39197;53.200;5.792;2023-06-10T00:48:28;11.00;;;4.82;;
53309;SDS011;39197;53.200;5.792;2023-06-10T00:50:54;8.15;;;4.85;;
53309;SDS011;39197;53.200;5.792;2023-06-10T00:53:21;10.90;;;7.18;;
53309;SDS011;39197;53.200;5.792;2023-06-10T00:55:47;8.57;;;4.30;;
53309;SDS011;39197;53.200;5.792;2023-06-10T00:58:13;11.73;;;7.70;;
53309;SDS011;39197;53.200;5.792;2023-06-10T01:00:40;8.60;;;5.07;;
53309;SDS011;39197;53.200;5.792;2023-06-10T01:03:06;8.82;;;4.72;;
53309;SDS011;39197;53.200;5.792;2023-06-10T01:05:33;8.75;;;4.88;;
53309;SDS011;39197;53.200;5.792;2023-06-10T01:08:03;9.55;;;5.82;;
53309;SDS011;39197;53.200;5.792;2023-06-10T01:10:53;9.77;;;4.93;;
53309;SDS011;39197;53.200;5.792;2023-06-10T01:13:23;10.20;;;4.57;;
53309;SDS011;39197;53.200;5.792;2023-06-10T01:15:54;11.43;;;4.38;;
53309;SDS011;39197;53.200;5.792;2023-06-10T01:18:21;7.88;;;5.40;;
53309;SDS011;39197;53.200;5.792;2023-06-10T01:20:47;10.52;;;4.55;;
53309;SDS011;39197;53.200;5.792;2023-06-10T01:23:13;9.70;;;5.40;;
53309;SDS011;39197;53.200;5.792;2023-06-10T01:25:41;8.35;;;5.28;;
53309;SDS011;39197;53.200;5.792;2023-06-10T01:28:31;13.05;;;5.30;;
53309;SDS011;39197;53.200;5.792;2023-06-10T01:31:15;12.32;;;5.47;;
53309;SDS011;39197;53.200;5.792;2023-06-10T01:33:47;10.65;;;6.60;;
53309;SDS011;39197;53.200;5.792;2023-06-10T01:36:17;8.88;;;5.22;;
53309;SDS011;39197;53.200;5.792;2023-06-10T01:38:46;10.38;;;4.95;;
53309;SDS011;39197;53.200;5.792;2023-06-10T01:41:13;9.95;;;4.72;;
53309;SDS011;39197;53.200;5.792;2023-06-10T01:43:40;8.10;;;4.93;;
53309;SDS011;39197;53.200;5.792;2023-06-10T01:46:08;8.85;;;5.95;;
53309;SDS011;39197;53.200;5.792;2023-06-10T01:48:34;10.38;;;5.80;;
53309;SDS011;39197;53.200;5.792;2023-06-10T01:51:02;10.70;;;5.63;;
53309;SDS011;39197;53.200;5.792;2023-06-10T01:53:28;8.73;;;5.30;;
53309;SDS011;39197;53.200;5.792;2023-06-10T01:55:53;7.72;;;5.13;;
53309;SDS011;39197;53.200;5.792;2023-06-10T01:58:19;9.55;;;5.13;;
53309;SDS011;39197;53.200;5.792;2023-06-10T02:00:45;8.65;;;4.95;;
53309;SDS011;39197;53.200;5.792;2023-06-10T02:03:10;6.75;;;4.75;;
53309;SDS011;39197;53.200;5.792;2023-06-10T02:05:36;7.40;;;5.05;;
53309;SDS011;39197;53.200;5.792;2023-06-10T02:08:02;9.98;;;6.05;;
53309;SDS011;39197;53.200;5.792;2023-06-10T02:10:27;7.47;;;4.95;;
53309;SDS011;39197;53.200;5.792;2023-06-10T02:12:53;7.20;;;4.75;;
53309;SDS011;39197;53.200;5.792;2023-06-10T02:15:18;8.63;;;4.95;;
53309;SDS011;39197;53.200;5.792;2023-06-10T02:17:44;9.50;;;4.93;;
53309;SDS011;39197;53.200;5.792;2023-06-10T02:20:10;10.20;;;7.07;;
53309;SDS011;39197;53.200;5.792;2023-06-10T02:22:37;8.65;;;4.97;;
53309;SDS011;39197;53.200;5.792;2023-06-10T02:25:03;10.15;;;6.10;;
53309;SDS011;39197;53.200;5.792;2023-06-10T02:27:30;8.07;;;4.70;;
53309;SDS011;39197;53.200;5.792;2023-06-10T02:29:56;8.93;;;5.32;;
53309;SDS011;39197;53.200;5.792;2023-06-10T02:32:22;7.57;;;4.70;;
53309;SDS011;39197;53.200;5.792;2023-06-10T02:34:48;10.73;;;5.18;;
53309;SDS011;39197;53.200;5.792;2023-06-10T02:37:14;11.15;;;6.93;;
53309;SDS011;39197;53.200;5.792;2023-06-10T02:39:40;13.27;;;6.63;;
53309;SDS011;39197;53.200;5.792;2023-06-10T02:42:06;9.38;;;4.95;;
53309;SDS011;39197;53.200;5.792;2023-06-10T02:44:32;9.82;;;4.75;;
53309;SDS011;39197;53.200;5.792;2023-06-10T02:46:58;10.23;;;4.75;;
53309;SDS011;39197;53.200;5.792;2023-06-10T02:49:24;11.90;;;5.07;;
53309;SDS011;39197;53.200;5.792;2023-06-10T02:51:52;12.43;;;4.72;;
53309;SDS011;39197;53.200;5.792;2023-06-10T02:54:21;9.98;;;4.65;;
53309;SDS011;39197;53.200;5.792;2023-06-10T02:56:48;8.35;;;4.95;;
53309;SDS011;39197;53.200;5.792;2023-06-10T02:59:13;12.45;;;4.95;;
53309;SDS011;39197;53.200;5.792;2023-06-10T03:01:39;8.88;;;4.32;;
53309;SDS011;39197;53.200;5.792;2023-06-10T03:04:05;10.10;;;4.68;;
53309;SDS011;39197;53.200;5.792;2023-06-10T03:06:32;9.38;;;6.28;;
53309;SDS011;39197;53.200;5.792;2023-06-10T03:09:03;10.52;;;5.07;;
53309;SDS011;39197;53.200;5.792;2023-06-10T03:11:29;13.57;;;5.65;;
53309;SDS011;39197;53.200;5.792;2023-06-10T03:13:56;11.00;;;4.75;;
53309;SDS011;39197;53.200;5.792;2023-06-10T03:16:22;10.45;;;4.43;;
53309;SDS011;39197;53.200;5.792;2023-06-10T03:18:50;9.15;;;4.57;;
53309;SDS011;39197;53.200;5.792;2023-06-10T03:21:16;8.32;;;4.25;;
53309;SDS011;39197;53.200;5.792;2023-06-10T03:23:41;9.93;;;4.78;;
53309;SDS011;39197;53.200;5.792;2023-06-10T03:26:07;11.30;;;5.53;;
53309;SDS011;39197;53.200;5.792;2023-06-10T03:28:33;9.35;;;5.15;;
53309;SDS011;39197;53.200;5.792;2023-06-10T03:30:58;9.00;;;4.97;;
53309;SDS011;39197;53.200;5.792;2023-06-10T03:33:24;7.82;;;4.43;;
53309;SDS011;39197;53.200;5.792;2023-06-10T03:35:51;9.57;;;5.28;;
53309;SDS011;39197;53.200;5.792;2023-06-10T03:38:16;10.55;;;4.97;;
53309;SDS011;39197;53.200;5.792;2023-06-10T03:40:42;8.65;;;5.35;;
53309;SDS011;39197;53.200;5.792;2023-06-10T03:43:08;12.20;;;5.40;;
53309;SDS011;39197;53.200;5.792;2023-06-10T03:45:33;9.43;;;4.85;;
53309;SDS011;39197;53.200;5.792;2023-06-10T03:47:59;12.52;;;5.28;;
53309;SDS011;39197;53.200;5.792;2023-06-10T03:50:25;8.52;;;5.25;;
53309;SDS011;39197;53.200;5.792;2023-06-10T03:52:52;10.35;;;4.72;;
53309;SDS011;39197;53.200;5.792;2023-06-10T03:55:18;11.88;;;5.10;;
53309;SDS011;39197;53.200;5.792;2023-06-10T03:57:46;10.18;;;5.35;;
53309;SDS011;39197;53.200;5.792;2023-06-10T04:00:13;9.07;;;4.20;;
53309;SDS011;39197;53.200;5.792;2023-06-10T04:02:40;9.38;;;5.50;;
53309;SDS011;39197;53.200;5.792;2023-06-10T04:05:13;9.68;;;4.90;;
53309;SDS011;39197;53.200;5.792;2023-06-10T04:07:40;7.88;;;4.65;;
53309;SDS011;39197;53.200;5.792;2023-06-10T04:10:07;7.57;;;4.60;;
53309;SDS011;39197;53.200;5.792;2023-06-10T04:12:33;8.18;;;4.47;;
53309;SDS011;39197;53.200;5.792;2023-06-10T04:14:59;12.90;;;5.18;;
53309;SDS011;39197;53.200;5.792;2023-06-10T04:17:25;7.93;;;4.72;;
53309;SDS011;39197;53.200;5.792;2023-06-10T04:19:51;10.00;;;5.07;;
53309;SDS011;39197;53.200;5.792;2023-06-10T04:22:17;9.77;;;5.00;;
53309;SDS011;39197;53.200;5.792;2023-06-10T04:24:43;7.72;;;4.38;;
53309;SDS011;39197;53.200;5.792;2023-06-10T04:27:09;8.95;;;4.70;;
53309;SDS011;39197;53.200;5.792;2023-06-10T04:29:35;7.95;;;4.57;;
53309;SDS011;39197;53.200;5.792;2023-06-10T04:32:01;9.38;;;5.10;;
53309;SDS011;39197;53.200;5.792;2023-06-10T04:34:27;8.70;;;4.40;;
53309;SDS011;39197;53.200;5.792;2023-06-10T04:36:53;9.13;;;4.63;;
53309;SDS011;39197;53.200;5.792;2023-06-10T04:39:19;10.57;;;5.32;;
53309;SDS011;39197;53.200;5.792;2023-06-10T04:41:45;9.10;;;4.55;;
53309;SDS011;39197;53.200;5.792;2023-06-10T04:44:11;9.60;;;4.97;;
53309;SDS011;39197;53.200;5.792;2023-06-10T04:46:37;9.48;;;4.80;;
53309;SDS011;39197;53.200;5.792;2023-06-10T04:49:03;8.32;;;4.00;;
53309;SDS011;39197;53.200;5.792;2023-06-10T04:51:30;7.88;;;4.88;;
53309;SDS011;39197;53.200;5.792;2023-06-10T04:53:56;11.38;;;5.10;;
53309;SDS011;39197;53.200;5.792;2023-06-10T04:56:22;10.35;;;5.35;;
53309;SDS011;39197;53.200;5.792;2023-06-10T04:58:49;9.23;;;4.78;;
53309;SDS011;39197;53.200;5.792;2023-06-10T05:01:15;12.02;;;4.07;;
53309;SDS011;39197;53.200;5.792;2023-06-10T05:03:40;8.95;;;4.68;;
53309;SDS011;39197;53.200;5.792;2023-06-10T05:06:06;8.90;;;4.85;;
53309;SDS011;39197;53.200;5.792;2023-06-10T05:08:32;10.13;;;4.97;;
53309;SDS011;39197;53.200;5.792;2023-06-10T05:10:58;8.43;;;4.50;;
53309;SDS011;39197;53.200;5.792;2023-06-10T05:13:24;9.45;;;4.30;;
53309;SDS011;39197;53.200;5.792;2023-06-10T05:15:49;8.90;;;4.50;;
53309;SDS011;39197;53.200;5.792;2023-06-10T05:18:15;9.57;;;5.38;;
53309;SDS011;39197;53.200;5.792;2023-06-10T05:20:41;7.22;;;4.70;;
53309;SDS011;39197;53.200;5.792;2023-06-10T05:23:06;11.45;;;4.78;;
53309;SDS011;39197;53.200;5.792;2023-06-10T05:25:32;13.55;;;5.10;;
53309;SDS011;39197;53.200;5.792;2023-06-10T05:27:58;9.38;;;5.20;;
53309;SDS011;39197;53.200;5.792;2023-06-10T05:30:24;8.82;;;4.95;;
53309;SDS011;39197;53.200;5.792;2023-06-10T05:32:51;11.32;;;4.60;;
53309;SDS011;39197;53.200;5.792;2023-06-10T05:35:17;11.65;;;5.20;;
53309;SDS011;39197;53.200;5.792;2023-06-10T05:37:43;11.02;;;5.03;;
53309;SDS011;39197;53.200;5.792;2023-06-10T05:40:09;13.43;;;4.93;;
53309;SDS011;39197;53.200;5.792;2023-06-10T05:42:35;11.55;;;4.72;;
53309;SDS011;39197;53.200;5.792;2023-06-10T05:45:01;12.82;;;5.03;;
53309;SDS011;39197;53.200;5.792;2023-06-10T05:47:27;7.60;;;4.80;;
53309;SDS011;39197;53.200;5.792;2023-06-10T05:49:53;9.02;;;5.55;;
53309;SDS011;39197;53.200;5.792;2023-06-10T05:52:19;9.02;;;4.82;;
53309;SDS011;39197;53.200;5.792;2023-06-10T05:54:45;10.43;;;4.80;;
53309;SDS011;39197;53.200;5.792;2023-06-10T05:57:10;9.68;;;5.18;;
53309;SDS011;39197;53.200;5.792;2023-06-10T05:59:39;9.57;;;5.13;;
53309;SDS011;39197;53.200;5.792;2023-06-10T06:02:05;17.23;;;6.68;;
53309;SDS011;39197;53.200;5.792;2023-06-10T06:04:31;9.45;;;5.82;;
53309;SDS011;39197;53.200;5.792;2023-06-10T06:06:57;11.77;;;5.65;;
53309;SDS011;39197;53.200;5.792;2023-06-10T06:09:22;15.10;;;5.57;;
53309;SDS011;39197;53.200;5.792;2023-06-10T06:11:48;12.93;;;5.57;;
53309;SDS011;39197;53.200;5.792;2023-06-10T06:14:14;10.18;;;5.60;;
53309;SDS011;39197;53.200;5.792;2023-06-10T06:16:39;10.60;;;5.18;;
53309;SDS011;39197;53.200;5.792;2023-06-10T06:19:05;13.20;;;6.10;;
53309;SDS011;39197;53.200;5.792;2023-06-10T06:21:31;10.80;;;5.80;;
53309;SDS011;39197;53.200;5.792;2023-06-10T06:23:56;13.15;;;5.70;;
53309;SDS011;39197;53.200;5.792;2023-06-10T06:26:23;12.45;;;6.72;;
53309;SDS011;39197;53.200;5.792;2023-06-10T06:28:48;10.13;;;6.07;;
53309;SDS011;39197;53.200;5.792;2023-06-10T06:31:14;14.70;;;5.38;;
53309;SDS011;39197;53.200;5.792;2023-06-10T06:33:40;16.17;;;5.57;;
53309;SDS011;39197;53.200;5.792;2023-06-10T06:36:05;15.20;;;6.05;;
53309;SDS011;39197;53.200;5.792;2023-06-10T06:38:31;10.30;;;4.80;;
53309;SDS011;39197;53.200;5.792;2023-06-10T06:40:57;10.38;;;4.57;;
53309;SDS011;39197;53.200;5.792;2023-06-10T06:43:27;13.23;;;5.50;;
53309;SDS011;39197;53.200;5.792;2023-06-10T06:45:54;20.83;;;6.60;;
53309;SDS011;39197;53.200;5.792;2023-06-10T06:48:20;11.13;;;4.90;;
53309;SDS011;39197;53.200;5.792;2023-06-10T06:50:46;10.35;;;4.75;;
53309;SDS011;39197;53.200;5.792;2023-06-10T06:53:12;12.65;;;5.53;;
53309;SDS011;39197;53.200;5.792;2023-06-10T06:55:39;11.85;;;5.60;;
53309;SDS011;39197;53.200;5.792;2023-06-10T06:58:04;11.35;;;5.28;;
53309;SDS011;39197;53.200;5.792;2023-06-10T07:00:30;12.48;;;4.90;;
53309;SDS011;39197;53.200;5.792;2023-06-10T07:02:57;8.73;;;4.75;;
53309;SDS011;39197;53.200;5.792;2023-06-10T07:05:23;11.73;;;4.13;;
53309;SDS011;39197;53.200;5.792;2023-06-10T07:07:52;10.27;;;4.63;;
53309;SDS011;39197;53.200;5.792;2023-06-10T07:10:20;13.18;;;4.75;;
53309;SDS011;39197;53.200;5.792;2023-06-10T07:12:50;10.95;;;4.45;;
53309;SDS011;39197;53.200;5.792;2023-06-10T07:15:16;9.07;;;4.70;;
53309;SDS011;39197;53.200;5.792;2023-06-10T07:17:42;8.05;;;4.40;;
53309;SDS011;39197;53.200;5.792;2023-06-10T07:20:08;10.18;;;4.85;;
53309;SDS011;39197;53.200;5.792;2023-06-10T07:22:34;12.40;;;4.60;;
53309;SDS011;39197;53.200;5.792;2023-06-10T07:25:03;8.52;;;4.13;;
53309;SDS011;39197;53.200;5.792;2023-06-10T07:27:29;7.63;;;3.78;;
53309;SDS011;39197;53.200;5.792;2023-06-10T07:29:56;7.72;;;3.40;;
53309;SDS011;39197;53.200;5.792;2023-06-10T07:32:22;10.65;;;3.75;;
53309;SDS011;39197;53.200;5.792;2023-06-10T07:34:49;7.80;;;3.47;;
53309;SDS011;39197;53.200;5.792;2023-06-10T07:37:15;8.43;;;4.05;;
53309;SDS011;39197;53.200;5.792;2023-06-10T07:39:41;8.10;;;3.63;;
53309;SDS011;39197;53.200;5.792;2023-06-10T07:42:08;7.43;;;4.43;;
53309;SDS011;39197;53.200;5.792;2023-06-10T07:44:34;7.55;;;3.65;;
53309;SDS011;39197;53.200;5.792;2023-06-10T07:46:59;8.52;;;4.30;;
53309;SDS011;39197;53.200;5.792;2023-06-10T07:49:28;8.75;;;3.80;;
53309;SDS011;39197;53.200;5.792;2023-06-10T07:51:56;12.95;;;4.68;;
53309;SDS011;39197;53.200;5.792;2023-06-10T07:54:28;7.00;;;3.38;;
53309;SDS011;39197;53.200;5.792;2023-06-10T07:56:54;6.40;;;3.53;;
53309;SDS011;39197;53.200;5.792;2023-06-10T07:59:19;8.63;;;3.95;;
53309;SDS011;39197;53.200;5.792;2023-06-10T08:01:45;6.78;;;4.05;;
53309;SDS011;39197;53.200;5.792;2023-06-10T08:04:11;9.00;;;3.53;;
53309;SDS011;39197;53.200;5.792;2023-06-10T08:06:37;8.65;;;4.25;;
53309;SDS011;39197;53.200;5.792;2023-06-10T08:09:03;6.97;;;3.60;;
53309;SDS011;39197;53.200;5.792;2023-06-10T08:11:28;5.65;;;3.55;;
53309;SDS011;39197;53.200;5.792;2023-06-10T08:13:55;18.58;;;3.70;;
53309;SDS011;39197;53.200;5.792;2023-06-10T08:16:21;5.50;;;3.13;;
53309;SDS011;39197;53.200;5.792;2023-06-10T08:18:46;6.35;;;3.53;;
53309;SDS011;39197;53.200;5.792;2023-06-10T08:21:15;7.20;;;2.90;;
53309;SDS011;39197;53.200;5.792;2023-06-10T08:23:41;7.53;;;3.10;;
53309;SDS011;39197;53.200;5.792;2023-06-10T08:26:06;8.15;;;3.35;;
53309;SDS011;39197;53.200;5.792;2023-06-10T08:28:32;7.68;;;2.85;;
53309;SDS011;39197;53.200;5.792;2023-06-10T08:30:58;6.63;;;3.67;;
53309;SDS011;39197;53.200;5.792;2023-06-10T08:33:23;6.43;;;3.78;;
53309;SDS011;39197;53.200;5.792;2023-06-10T08:35:49;6.43;;;2.85;;
53309;SDS011;39197;53.200;5.792;2023-06-10T08:38:16;7.70;;;2.88;;
53309;SDS011;39197;53.200;5.792;2023-06-10T08:40:42;7.22;;;3.38;;
53309;SDS011;39197;53.200;5.792;2023-06-10T08:43:17;7.32;;;3.10;;
53309;SDS011;39197;53.200;5.792;2023-06-10T08:45:48;5.53;;;2.78;;
53309;SDS011;39197;53.200;5.792;2023-06-10T08:48:14;6.53;;;3.88;;
53309;SDS011;39197;53.200;5.792;2023-06-10T08:50:44;5.97;;;3.60;;
53309;SDS011;39197;53.200;5.792;2023-06-10T08:53:10;7.30;;;4.43;;
53309;SDS011;39197;53.200;5.792;2023-06-10T08:55:43;6.90;;;3.20;;
53309;SDS011;39197;53.200;5.792;2023-06-10T08:58:12;6.32;;;3.00;;
53309;SDS011;39197;53.200;5.792;2023-06-10T09:00:38;5.97;;;4.00;;
53309;SDS011;39197;53.200;5.792;2023-06-10T09:03:04;7.32;;;3.08;;
53309;SDS011;39197;53.200;5.792;2023-06-10T09:05:33;7.70;;;3.40;;
53309;SDS011;39197;53.200;5.792;2023-06-10T09:07:58;5.40;;;2.88;;
53309;SDS011;39197;53.200;5.792;2023-06-10T09:10:26;5.40;;;2.70;;
53309;SDS011;39197;53.200;5.792;2023-06-10T09:12:53;6.57;;;3.30;;
53309;SDS011;39197;53.200;5.792;2023-06-10T09:15:19;6.13;;;3.33;;
53309;SDS011;39197;53.200;5.792;2023-06-10T09:17:45;5.57;;;3.08;;
53309;SDS011;39197;53.200;5.792;2023-06-10T09:20:11;4.68;;;2.90;;
53309;SDS011;39197;53.200;5.792;2023-06-10T09:22:37;7.78;;;3.78;;
53309;SDS011;39197;53.200;5.792;2023-06-10T09:25:03;4.47;;;2.58;;
53309;SDS011;39197;53.200;5.792;2023-06-10T09:27:49;6.40;;;2.63;;
53309;SDS011;39197;53.200;5.792;2023-06-10T09:30:28;6.80;;;3.33;;
53309;SDS011;39197;53.200;5.792;2023-06-10T09:32:56;5.80;;;3.13;;
53309;SDS011;39197;53.200;5.792;2023-06-10T09:35:24;4.82;;;2.83;;
53309;SDS011;39197;53.200;5.792;2023-06-10T09:37:55;6.50;;;3.53;;
53309;SDS011;39197;53.200;5.792;2023-06-10T09:40:22;5.53;;;3.38;;
53309;SDS011;39197;53.200;5.792;2023-06-10T09:42:55;5.20;;;2.95;;
53309;SDS011;39197;53.200;5.792;2023-06-10T09:45:22;4.03;;;3.15;;
53309;SDS011;39197;53.200;5.792;2023-06-10T09:47:52;6.28;;;3.45;;
53309;SDS011;39197;53.200;5.792;2023-06-10T09:50:21;5.63;;;3.78;;
53309;SDS011;39197;53.200;5.792;2023-06-10T09:52:47;6.15;;;3.92;;
53309;SDS011;39197;53.200;5.792;2023-06-10T09:55:13;6.00;;;2.55;;
53309;SDS011;39197;53.200;5.792;2023-06-10T09:57:39;6.00;;;2.67;;
53309;SDS011;39197;53.200;5.792;2023-06-10T10:00:07;9.23;;;3.53;;
53309;SDS011;39197;53.200;5.792;2023-06-10T10:02:44;7.35;;;3.83;;
53309;SDS011;39197;53.200;5.792;2023-06-10T10:05:17;6.53;;;3.53;;
53309;SDS011;39197;53.200;5.792;2023-06-10T10:07:44;3.95;;;2.80;;
53309;SDS011;39197;53.200;5.792;2023-06-10T10:10:11;6.75;;;2.70;;
53309;SDS011;39197;53.200;5.792;2023-06-10T10:12:38;4.57;;;2.85;;
53309;SDS011;39197;53.200;5.792;2023-06-10T10:15:08;5.00;;;2.60;;
53309;SDS011;39197;53.200;5.792;2023-06-10T10:17:40;3.83;;;1.95;;
53309;SDS011;39197;53.200;5.792;2023-06-10T10:20:10;4.40;;;2.13;;
53309;SDS011;39197;53.200;5.792;2023-06-10T10:22:39;7.85;;;2.53;;
53309;SDS011;39197;53.200;5.792;2023-06-10T10:25:11;3.30;;;2.20;;
53309;SDS011;39197;53.200;5.792;2023-06-10T10:28:11;6.35;;;3.08;;
53309;SDS011;39197;53.200;5.792;2023-06-10T10:30:49;4.65;;;2.47;;
53309;SDS011;39197;53.200;5.792;2023-06-10T10:33:53;5.20;;;2.25;;
53309;SDS011;39197;53.200;5.792;2023-06-10T10:36:15;6.22;;;3.03;;
53309;SDS011;39197;53.200;5.792;2023-06-10T10:38:41;6.32;;;2.30;;
53309;SDS011;39197;53.200;5.792;2023-06-10T10:41:08;4.57;;;2.38;;
53309;SDS011;39197;53.200;5.792;2023-06-10T10:43:34;7.20;;;2.20;;
53309;SDS011;39197;53.200;5.792;2023-06-10T10:46:01;4.38;;;2.42;;
53309;SDS011;39197;53.200;5.792;2023-06-10T10:48:36;6.65;;;2.28;;
53309;SDS011;39197;53.200;5.792;2023-06-10T10:51:06;4.40;;;2.63;;
53309;SDS011;39197;53.200;5.792;2023-06-10T10:53:33;3.80;;;2.50;;
53309;SDS011;39197;53.200;5.792;2023-06-10T10:56:05;4.60;;;2.22;;
53309;SDS011;39197;53.200;5.792;2023-06-10T10:58:36;4.00;;;2.58;;
53309;SDS011;39197;53.200;5.792;2023-06-10T11:01:12;6.05;;;3.53;;
53309;SDS011;39197;53.200;5.792;2023-06-10T11:03:43;6.18;;;3.03;;
53309;SDS011;39197;53.200;5.792;2023-06-10T11:06:12;5.68;;;3.10;;
53309;SDS011;39197;53.200;5.792;2023-06-10T11:11:19;4.82;;;2.90;;
53309;SDS011;39197;53.200;5.792;2023-06-10T11:14:06;5.95;;;2.80;;
53309;SDS011;39197;53.200;5.792;2023-06-10T11:16:38;9.30;;;3.03;;
53309;SDS011;39197;53.200;5.792;2023-06-10T11:19:06;2.83;;;2.05;;
53309;SDS011;39197;53.200;5.792;2023-06-10T11:21:32;4.53;;;2.70;;
53309;SDS011;39197;53.200;5.792;2023-06-10T11:24:21;5.68;;;3.20;;
53309;SDS011;39197;53.200;5.792;2023-06-10T11:26:47;6.32;;;2.33;;
53309;SDS011;39197;53.200;5.792;2023-06-10T11:29:14;4.65;;;2.40;;
53309;SDS011;39197;53.200;5.792;2023-06-10T11:31:41;5.80;;;2.88;;
53309;SDS011;39197;53.200;5.792;2023-06-10T11:34:13;3.75;;;2.00;;
53309;SDS011;39197;53.200;5.792;2023-06-10T11:36:41;5.35;;;2.60;;
53309;SDS011;39197;53.200;5.792;2023-06-10T11:39:10;5.15;;;2.50;;
53309;SDS011;39197;53.200;5.792;2023-06-10T11:41:37;6.05;;;2.10;;
53309;SDS011;39197;53.200;5.792;2023-06-10T11:44:13;5.82;;;3.40;;
53309;SDS011;39197;53.200;5.792;2023-06-10T11:46:39;7.57;;;2.67;;
53309;SDS011;39197;53.200;5.792;2023-06-10T11:49:07;8.15;;;2.58;;
53309;SDS011;39197;53.200;5.792;2023-06-10T11:51:37;4.53;;;2.58;;
53309;SDS011;39197;53.200;5.792;2023-06-10T11:54:05;7.57;;;4.22;;
53309;SDS011;39197;53.200;5.792;2023-06-10T11:56:33;5.68;;;2.85;;
53309;SDS011;39197;53.200;5.792;2023-06-10T11:59:03;5.72;;;3.13;;
53309;SDS011;39197;53.200;5.792;2023-06-10T12:01:32;6.38;;;2.88;;
53309;SDS011;39197;53.200;5.792;2023-06-10T12:04:05;5.70;;;2.83;;
53309;SDS011;39197;53.200;5.792;2023-06-10T12:06:45;6.55;;;2.50;;
53309;SDS011;39197;53.200;5.792;2023-06-10T12:17:24;6.80;;;3.50;;
53309;SDS011;39197;53.200;5.792;2023-06-10T12:19:56;7.85;;;2.78;;
53309;SDS011;39197;53.200;5.792;2023-06-10T12:22:22;6.20;;;3.08;;
53309;SDS011;39197;53.200;5.792;2023-06-10T12:25:00;6.28;;;3.08;;
53309;SDS011;39197;53.200;5.792;2023-06-10T12:27:31;8.68;;;3.70;;
53309;SDS011;39197;53.200;5.792;2023-06-10T12:30:02;6.28;;;4.00;;
53309;SDS011;39197;53.200;5.792;2023-06-10T12:32:40;7.65;;;4.03;;
53309;SDS011;39197;53.200;5.792;2023-06-10T12:35:09;10.50;;;3.33;;
53309;SDS011;39197;53.200;5.792;2023-06-10T12:37:37;7.75;;;3.53;;
53309;SDS011;39197;53.200;5.792;2023-06-10T12:40:03;8.05;;;3.33;;
53309;SDS011;39197;53.200;5.792;2023-06-10T12:42:39;10.43;;;5.13;;
53309;SDS011;39197;53.200;5.792;2023-06-10T12:45:05;11.25;;;3.30;;
53309;SDS011;39197;53.200;5.792;2023-06-10T12:48:09;8.27;;;3.25;;
53309;SDS011;39197;53.200;5.792;2023-06-10T12:50:38;7.50;;;3.63;;
53309;SDS011;39197;53.200;5.792;2023-06-10T12:53:05;9.95;;;3.78;;
53309;SDS011;39197;53.200;5.792;2023-06-10T12:55:31;10.40;;;3.78;;
53309;SDS011;39197;53.200;5.792;2023-06-10T12:57:58;10.27;;;4.65;;
53309;SDS011;39197;53.200;5.792;2023-06-10T13:00:26;9.65;;;4.80;;
53309;SDS011;39197;53.200;5.792;2023-06-10T13:02:54;11.68;;;3.25;;
53309;SDS011;39197;53.200;5.792;2023-06-10T13:05:21;7.53;;;3.47;;
53309;SDS011;39197;53.200;5.792;2023-06-10T13:07:47;8.48;;;3.80;;
53309;SDS011;39197;53.200;5.792;2023-06-10T13:10:14;9.95;;;4.07;;
53309;SDS011;39197;53.200;5.792;2023-06-10T13:12:50;9.02;;;3.05;;
53309;SDS011;39197;53.200;5.792;2023-06-10T13:15:16;10.70;;;5.32;;
53309;SDS011;39197;53.200;5.792;2023-06-10T13:17:43;8.32;;;3.50;;
53309;SDS011;39197;53.200;5.792;2023-06-10T13:20:14;8.38;;;3.53;;
53309;SDS011;39197;53.200;5.792;2023-06-10T13:22:41;14.48;;;3.78;;
53309;SDS011;39197;53.200;5.792;2023-06-10T13:25:07;13.75;;;4.38;;
53309;SDS011;39197;53.200;5.792;2023-06-10T13:27:34;11.30;;;4.38;;
53309;SDS011;39197;53.200;5.792;2023-06-10T13:30:06;8.10;;;3.53;;
53309;SDS011;39197;53.200;5.792;2023-06-10T13:32:33;11.43;;;3.83;;
53309;SDS011;39197;53.200;5.792;2023-06-10T13:34:59;10.25;;;3.75;;
53309;SDS011;39197;53.200;5.792;2023-06-10T13:37:24;13.77;;;5.68;;
53309;SDS011;39197;53.200;5.792;2023-06-10T13:39:52;10.98;;;4.88;;
53309;SDS011;39197;53.200;5.792;2023-06-10T13:42:18;10.15;;;3.70;;
53309;SDS011;39197;53.200;5.792;2023-06-10T13:44:44;12.02;;;4.50;;
53309;SDS011;39197;53.200;5.792;2023-06-10T13:47:16;12.43;;;3.65;;
53309;SDS011;39197;53.200;5.792;2023-06-10T13:49:42;10.05;;;3.88;;
53309;SDS011;39197;53.200;5.792;2023-06-10T13:52:08;11.30;;;4.13;;
53309;SDS011;39197;53.200;5.792;2023-06-10T13:54:34;19.10;;;8.63;;
53309;SDS011;39197;53.200;5.792;2023-06-10T13:57:03;13.82;;;4.00;;
53309;SDS011;39197;53.200;5.792;2023-06-10T13:59:28;8.45;;;3.80;;
53309;SDS011;39197;53.200;5.792;2023-06-10T14:02:01;10.10;;;3.38;;
53309;SDS011;39197;53.200;5.792;2023-06-10T14:04:26;10.07;;;3.30;;
53309;SDS011;39197;53.200;5.792;2023-06-10T14:06:52;9.95;;;3.55;;
53309;SDS011;39197;53.200;5.792;2023-06-10T14:09:18;7.85;;;4.07;;
53309;SDS011;39197;53.200;5.792;2023-06-10T14:11:44;8.35;;;3.75;;
53309;SDS011;39197;53.200;5.792;2023-06-10T14:14:10;11.68;;;4.15;;
53309;SDS011;39197;53.200;5.792;2023-06-10T14:16:36;12.00;;;3.53;;
53309;SDS011;39197;53.200;5.792;2023-06-10T14:19:05;10.75;;;3.42;;
53309;SDS011;39197;53.200;5.792;2023-06-10T14:21:30;8.82;;;4.38;;
53309;SDS011;39197;53.200;5.792;2023-06-10T14:23:56;11.02;;;4.13;;
53309;SDS011;39197;53.200;5.792;2023-06-10T14:26:22;14.32;;;3.78;;
53309;SDS011;39197;53.200;5.792;2023-06-10T14:28:48;9.07;;;3.30;;
53309;SDS011;39197;53.200;5.792;2023-06-10T14:31:14;10.27;;;3.60;;
53309;SDS011;39197;53.200;5.792;2023-06-10T14:33:44;10.70;;;3.22;;
53309;SDS011;39197;53.200;5.792;2023-06-10T14:36:10;13.70;;;4.25;;
53309;SDS011;39197;53.200;5.792;2023-06-10T14:38:36;12.00;;;5.57;;
53309;SDS011;39197;53.200;5.792;2023-06-10T14:41:01;5.45;;;3.00;;
53309;SDS011;39197;53.200;5.792;2023-06-10T14:43:27;8.18;;;3.10;;
53309;SDS011;39197;53.200;5.792;2023-06-10T14:45:54;11.30;;;4.20;;
53309;SDS011;39197;53.200;5.792;2023-06-10T14:48:21;11.23;;;3.25;;
53309;SDS011;39197;53.200;5.792;2023-06-10T14:50:47;9.38;;;3.63;;
53309;SDS011;39197;53.200;5.792;2023-06-10T14:53:17;14.98;;;7.05;;
53309;SDS011;39197;53.200;5.792;2023-06-10T14:55:43;11.60;;;3.70;;
53309;SDS011;39197;53.200;5.792;2023-06-10T14:58:09;10.60;;;3.95;;